Time;durP1;ratioP1;P1;durP2;ratioP2;P2;SDS_P1;SDS_P2;PMS_P1;PMS_P2;Temp;Humidity;BMP_temperature;BMP_pressure;BME280_temperature;BME280_humidity;BME280_pressure;Samples;Min_cycle;Max_cycle;Signal;HPM_P1;HPM_P2
2022/12/07 00:01:09;;;;;;;3.40;2.00;;;1.90;99.90;;;;;;4986097;28;20048;-71
2022/12/07 00:03:36;;;;;;;3.28;1.58;;;2.00;99.90;;;;;;4993523;28;20030;-71
2022/12/07 00:06:03;;;;;;;4.80;2.38;;;1.90;99.90;;;;;;4988856;28;20030;-71
2022/12/07 00:08:30;;;;;;;8.95;2.38;;;1.90;99.90;;;;;;4998149;28;20033;-71
2022/12/07 00:11:07;;;;;;;4.20;2.22;;;2.00;99.90;;;;;;5005940;28;20048;-71
2022/12/07 00:13:34;;;;;;;6.38;2.03;;;1.80;99.90;;;;;;5004418;28;20582;-71
2022/12/07 00:16:05;;;;;;;4.65;2.10;;;2.00;99.90;;;;;;4993805;28;20041;-71
2022/12/07 00:18:31;;;;;;;3.67;1.60;;;1.90;99.90;;;;;;4990733;28;20092;-71
2022/12/07 00:21:09;;;;;;;5.35;1.75;;;1.80;99.90;;;;;;4994443;28;20034;-71
2022/12/07 00:23:35;;;;;;;3.67;1.60;;;1.80;99.90;;;;;;5004431;28;20050;-71
2022/12/07 00:26:05;;;;;;;10.73;2.08;;;1.50;99.90;;;;;;5009911;28;20092;-71
2022/12/07 00:28:31;;;;;;;4.57;2.30;;;1.40;99.90;;;;;;4999612;28;20033;-71
2022/12/07 00:31:16;;;;;;;5.97;2.03;;;1.50;99.90;;;;;;5006704;28;20030;-71
2022/12/07 00:33:42;;;;;;;4.88;2.30;;;1.50;99.90;;;;;;5000212;28;20121;-71
2022/12/07 00:36:10;;;;;;;4.00;2.15;;;1.60;99.90;;;;;;5004939;28;20060;-71
2022/12/07 00:38:37;;;;;;;5.13;2.60;;;1.80;99.90;;;;;;5001803;28;20036;-71
2022/12/07 00:41:15;;;;;;;5.45;2.47;;;1.80;99.90;;;;;;4996227;28;20535;-71
2022/12/07 00:43:42;;;;;;;4.18;2.10;;;1.70;99.90;;;;;;4996892;28;20030;-71
2022/12/07 00:46:08;;;;;;;4.85;1.92;;;1.90;99.90;;;;;;4995230;28;20085;-71
2022/12/07 00:48:34;;;;;;;4.65;2.17;;;1.70;99.90;;;;;;4991955;28;20026;-71
2022/12/07 00:51:00;;;;;;;4.32;2.42;;;1.50;99.90;;;;;;4994924;28;20550;-71
2022/12/07 00:53:27;;;;;;;4.43;2.15;;;1.70;99.90;;;;;;4997591;28;20045;-71
2022/12/07 00:55:55;;;;;;;4.25;1.95;;;1.80;99.90;;;;;;5006395;28;20048;-71
2022/12/07 00:58:21;;;;;;;5.40;2.22;;;1.80;99.90;;;;;;4993902;28;20044;-71
2022/12/07 01:00:46;;;;;;;4.03;1.52;;;1.90;99.90;;;;;;4995772;28;20338;-71
2022/12/07 01:03:14;;;;;;;5.40;2.50;;;1.80;99.90;;;;;;4995646;28;20030;-71
2022/12/07 01:05:48;;;;;;;4.30;1.90;;;1.80;99.90;;;;;;4997079;28;20081;-71
2022/12/07 01:08:13;;;;;;;4.78;2.65;;;1.70;99.90;;;;;;4990627;28;20038;-70
2022/12/07 01:10:39;;;;;;;4.30;1.80;;;1.50;99.90;;;;;;4992651;28;20496;-70
2022/12/07 01:13:05;;;;;;;6.32;2.10;;;1.60;99.90;;;;;;4994774;28;20073;-70
2022/12/07 01:15:30;;;;;;;4.95;2.10;;;1.50;99.90;;;;;;4995361;28;20034;-71
2022/12/07 01:17:56;;;;;;;4.35;2.15;;;1.40;99.90;;;;;;4998495;28;20026;-70
2022/12/07 01:20:22;;;;;;;4.55;2.05;;;1.40;99.90;;;;;;4996280;28;20041;-70
2022/12/07 01:22:48;;;;;;;9.63;2.65;;;1.40;99.90;;;;;;5001307;28;20049;-70
2022/12/07 01:25:14;;;;;;;4.10;2.17;;;1.30;99.90;;;;;;5004554;28;20112;-70
2022/12/07 01:27:39;;;;;;;4.97;2.72;;;1.40;99.90;;;;;;5007421;28;20038;-71
2022/12/07 01:30:06;;;;;;;5.82;2.25;;;1.40;99.90;;;;;;4996747;28;20091;-70
2022/12/07 01:32:33;;;;;;;4.10;2.10;;;1.40;99.90;;;;;;4996648;28;20034;-70
2022/12/07 01:34:59;;;;;;;5.47;2.85;;;1.50;99.90;;;;;;4994751;28;20044;-71
2022/12/07 01:37:24;;;;;;;7.47;2.80;;;1.50;99.90;;;;;;4999630;28;20034;-71
2022/12/07 01:39:51;;;;;;;4.10;2.03;;;1.60;99.90;;;;;;4998873;28;20034;-71
2022/12/07 01:42:17;;;;;;;5.10;2.55;;;1.70;99.90;;;;;;4992628;28;20106;-71
2022/12/07 01:45:17;;;;;;;5.70;2.28;;;1.90;99.90;;;;;;5005707;28;20400;-71
2022/12/07 01:47:55;;;;;;;6.95;2.35;;;1.80;99.90;;;;;;5001684;28;20484;-71
2022/12/07 01:50:24;;;;;;;5.72;2.25;;;1.80;99.90;;;;;;5002865;28;20069;-71
2022/12/07 01:52:52;;;;;;;6.32;2.67;;;1.80;99.90;;;;;;5002753;28;20088;-71
2022/12/07 01:55:18;;;;;;;4.10;2.25;;;1.60;99.90;;;;;;4991655;28;20065;-71
2022/12/07 01:57:48;;;;;;;5.72;2.15;;;1.20;99.90;;;;;;4994497;28;20033;-70
2022/12/07 02:00:14;;;;;;;5.05;2.08;;;1.10;99.90;;;;;;4989854;28;20347;-70
2022/12/07 02:02:53;;;;;;;6.63;2.72;;;0.90;99.90;;;;;;4996749;28;20452;-70
2022/12/07 02:05:19;;;;;;;5.15;1.95;;;1.00;99.90;;;;;;5006537;28;20049;-71
2022/12/07 02:07:47;;;;;;;5.85;2.65;;;1.10;99.90;;;;;;4998924;28;20042;-71
2022/12/07 02:10:28;;;;;;;4.85;2.25;;;1.00;99.90;;;;;;4995238;28;20034;-71
2022/12/07 02:13:13;;;;;;;6.03;2.92;;;0.90;99.90;;;;;;5000385;28;20022;-71
2022/12/07 02:15:53;;;;;;;;;;;1.00;99.90;;;;;;4992358;28;20030;-71
2022/12/07 02:18:28;;;;;;;10.10;3.42;;;1.00;99.90;;;;;;4999153;28;19932;-70
2022/12/07 02:21:16;;;;;;;5.68;2.58;;;1.10;99.90;;;;;;5001288;28;20088;-70
2022/12/07 02:23:56;;;;;;;4.72;2.53;;;1.30;99.90;;;;;;4999202;28;20053;-71
2022/12/07 02:26:33;;;;;;;5.75;2.65;;;1.40;99.90;;;;;;4999255;28;20034;-71
2022/12/07 02:29:43;;;;;;;4.72;2.17;;;1.30;99.90;;;;;;5004124;28;20026;-71
2022/12/07 02:32:12;;;;;;;6.40;2.30;;;1.50;99.90;;;;;;4999201;28;20050;-70
2022/12/07 02:34:50;;;;;;;4.88;2.17;;;1.80;99.90;;;;;;4998297;28;20030;-70
2022/12/07 02:37:45;;;;;;;4.47;2.42;;;1.80;99.90;;;;;;5008148;28;20030;-71
2022/12/07 02:40:48;;;;;;;4.47;2.65;;;1.80;99.90;;;;;;4998146;28;20060;-71
2022/12/07 02:43:25;;;;;;;4.35;1.95;;;1.50;99.90;;;;;;4976843;28;20612;-71
2022/12/07 02:45:52;;;;;;;4.80;2.15;;;1.50;99.90;;;;;;4998452;28;20034;-71
2022/12/07 02:48:19;;;;;;;3.53;1.85;;;1.50;99.90;;;;;;4998523;28;20097;-71
2022/12/07 02:50:53;;;;;;;5.20;2.13;;;1.70;99.90;;;;;;5001565;28;20046;-71
2022/12/07 02:53:36;;;;;;;5.20;2.67;;;1.60;99.90;;;;;;5005636;28;20080;-70
2022/12/07 02:56:21;;;;;;;5.43;2.08;;;1.50;99.90;;;;;;4991705;28;20120;-71
2022/12/07 02:58:59;;;;;;;;;;;1.50;99.90;;;;;;4995444;28;20037;-70
2022/12/07 03:01:41;;;;;;;6.30;3.03;;;1.60;99.90;;;;;;5004248;28;19914;-70
2022/12/07 03:04:12;;;;;;;4.57;2.08;;;1.60;99.90;;;;;;5001506;28;20552;-70
2022/12/07 03:06:48;;;;;;;4.03;2.05;;;1.50;99.90;;;;;;5002495;28;20045;-70
2022/12/07 03:09:21;;;;;;;5.40;2.38;;;1.70;99.90;;;;;;5006801;28;20496;-70
2022/12/07 03:12:01;;;;;;;4.93;2.13;;;1.70;99.90;;;;;;4999962;28;20042;-70
2022/12/07 03:14:34;;;;;;;4.63;2.40;;;1.60;99.90;;;;;;5009502;28;20030;-69
2022/12/07 03:17:14;;;;;;;3.83;1.98;;;1.60;99.90;;;;;;5009715;28;20038;-70
2022/12/07 03:19:42;;;;;;;3.33;1.90;;;1.50;99.90;;;;;;4995939;28;20040;-70
2022/12/07 03:22:10;;;;;;;7.03;1.95;;;1.20;99.90;;;;;;4992544;28;20031;-70
2022/12/07 03:24:42;;;;;;;5.22;2.10;;;1.30;99.90;;;;;;4997050;28;20040;-69
2022/12/07 03:27:22;;;;;;;7.00;2.53;;;1.40;99.90;;;;;;5008538;28;20174;-69
2022/12/07 03:30:00;;;;;;;3.55;1.73;;;1.40;99.90;;;;;;4997250;28;20065;-70
2022/12/07 03:32:34;;;;;;;5.60;2.40;;;1.40;99.90;;;;;;4992363;28;20936;-70
2022/12/07 03:35:25;;;;;;;3.83;2.15;;;1.30;99.90;;;;;;4993148;28;20395;-69
2022/12/07 03:37:54;;;;;;;3.75;1.80;;;1.30;99.90;;;;;;4996268;28;20451;-70
2022/12/07 03:40:44;;;;;;;4.60;2.15;;;1.30;99.90;;;;;;4994621;28;20097;-69
2022/12/07 03:43:11;;;;;;;3.83;1.70;;;1.30;99.90;;;;;;5004285;28;20026;-69
2022/12/07 03:45:41;;;;;;;3.92;1.92;;;1.40;99.90;;;;;;5002833;28;20096;-69
2022/12/07 03:48:25;;;;;;;5.15;2.70;;;1.40;99.90;;;;;;4999171;28;20033;-70
2022/12/07 03:51:02;;;;;;;5.03;2.38;;;1.30;99.90;;;;;;4996095;28;20397;-70
2022/12/07 03:53:37;;;;;;;10.90;3.45;;;1.20;99.90;;;;;;4996563;28;20045;-70
2022/12/07 03:56:03;;;;;;;5.28;2.25;;;1.00;99.90;;;;;;4992437;28;20054;-70
2022/12/07 03:58:31;;;;;;;4.75;1.80;;;1.10;99.90;;;;;;5007263;28;20041;-70
2022/12/07 04:00:57;;;;;;;4.13;1.63;;;1.00;99.90;;;;;;4993104;28;20121;-71
2022/12/07 04:03:22;;;;;;;6.80;2.47;;;1.00;99.90;;;;;;4994044;28;20037;-71
2022/12/07 04:05:48;;;;;;;3.75;1.88;;;1.10;99.90;;;;;;4991986;28;20034;-71
2022/12/07 04:08:14;;;;;;;4.25;2.00;;;1.30;99.90;;;;;;4995643;28;20034;-71
2022/12/07 04:10:40;;;;;;;4.32;1.85;;;1.50;99.90;;;;;;4997444;28;20480;-71
2022/12/07 04:13:05;;;;;;;5.85;1.85;;;1.20;99.90;;;;;;4991326;28;20038;-71
2022/12/07 04:15:31;;;;;;;4.28;2.13;;;1.30;99.90;;;;;;4992403;28;20034;-71
2022/12/07 04:17:57;;;;;;;4.40;2.00;;;1.40;99.90;;;;;;5000689;28;20971;-70
2022/12/07 04:20:22;;;;;;;4.95;2.28;;;1.50;99.90;;;;;;4986765;28;20530;-70
2022/12/07 04:22:48;;;;;;;4.05;1.95;;;1.50;99.90;;;;;;4985840;28;20049;-71
2022/12/07 04:25:14;;;;;;;4.07;1.90;;;1.50;99.90;;;;;;4994413;28;20329;-70
2022/12/07 04:27:39;;;;;;;4.78;2.10;;;1.50;99.90;;;;;;4998304;28;20045;-71
2022/12/07 04:30:05;;;;;;;3.30;1.55;;;1.40;99.90;;;;;;5003950;28;20034;-71
2022/12/07 04:32:31;;;;;;;3.80;1.90;;;1.40;99.90;;;;;;4989876;28;20132;-71
2022/12/07 04:34:57;;;;;;;4.90;2.53;;;1.50;99.90;;;;;;4994731;28;20109;-71
2022/12/07 04:37:23;;;;;;;4.93;2.40;;;1.60;99.90;;;;;;4987468;28;20096;-70
2022/12/07 04:39:49;;;;;;;6.22;2.15;;;1.60;99.90;;;;;;5001937;28;20030;-71
2022/12/07 04:42:15;;;;;;;3.55;1.95;;;1.60;99.90;;;;;;4993926;28;20034;-71
2022/12/07 04:44:40;;;;;;;3.15;1.75;;;1.60;99.90;;;;;;4990084;28;20084;-71
2022/12/07 04:47:06;;;;;;;5.10;1.80;;;1.60;99.90;;;;;;5000197;28;20135;-70
2022/12/07 04:49:32;;;;;;;4.78;2.33;;;1.40;99.90;;;;;;4993858;28;20054;-71
2022/12/07 04:51:57;;;;;;;6.53;2.05;;;1.40;99.90;;;;;;4988458;28;20123;-71
2022/12/07 04:54:23;;;;;;;3.42;1.65;;;1.30;99.90;;;;;;4995452;28;20129;-71
2022/12/07 04:56:49;;;;;;;4.63;2.13;;;1.20;99.90;;;;;;4993368;28;20054;-70
2022/12/07 04:59:16;;;;;;;3.85;1.67;;;1.10;99.90;;;;;;4986944;28;20515;-71
2022/12/07 05:01:42;;;;;;;3.30;1.75;;;0.90;99.90;;;;;;4991088;28;20033;-71
2022/12/07 05:04:09;;;;;;;5.07;1.83;;;0.70;99.90;;;;;;4993766;28;20065;-71
2022/12/07 05:06:35;;;;;;;5.13;1.95;;;0.80;99.90;;;;;;4984294;28;20805;-71
2022/12/07 05:09:01;;;;;;;2.85;1.50;;;0.80;99.90;;;;;;4999477;28;20049;-71
2022/12/07 05:11:39;;;;;;;4.55;2.15;;;0.80;99.90;;;;;;5000831;28;20432;-71
2022/12/07 05:14:10;;;;;;;3.45;2.00;;;0.80;99.90;;;;;;4989166;28;20064;-71
2022/12/07 05:16:36;;;;;;;3.85;2.10;;;0.90;99.90;;;;;;4996687;28;20916;-71
2022/12/07 05:19:02;;;;;;;6.30;2.50;;;0.90;99.90;;;;;;4992865;28;20042;-71
2022/12/07 05:21:28;;;;;;;4.85;2.03;;;0.80;99.90;;;;;;4991620;28;20050;-71
2022/12/07 05:23:54;;;;;;;5.40;2.42;;;0.90;99.90;;;;;;4985864;28;20137;-71
2022/12/07 05:26:19;;;;;;;5.05;2.30;;;1.20;99.90;;;;;;5000578;28;20087;-70
2022/12/07 05:28:45;;;;;;;4.55;1.70;;;1.50;99.90;;;;;;4995785;28;20048;-71
2022/12/07 05:31:11;;;;;;;5.32;2.78;;;1.60;99.90;;;;;;5000133;28;20579;-70
2022/12/07 05:33:36;;;;;;;7.38;2.90;;;1.40;99.90;;;;;;4996005;28;20040;-71
2022/12/07 05:36:05;;;;;;;3.35;1.90;;;1.10;99.90;;;;;;4987479;28;20041;-71
2022/12/07 05:38:32;;;;;;;4.80;2.10;;;0.90;99.90;;;;;;4991007;28;20026;-71
2022/12/07 05:41:03;;;;;;;5.05;1.90;;;1.20;99.90;;;;;;4989548;28;20030;-71
2022/12/07 05:43:30;;;;;;;4.15;1.90;;;1.40;99.90;;;;;;4983727;28;20512;-72
2022/12/07 05:45:56;;;;;;;4.35;1.83;;;1.20;99.90;;;;;;4982420;28;20026;-71
2022/12/07 05:48:22;;;;;;;3.45;1.52;;;1.00;99.90;;;;;;4988108;28;20152;-71
2022/12/07 05:50:48;;;;;;;4.03;1.70;;;1.20;99.90;;;;;;4996067;28;20048;-71
2022/12/07 05:53:14;;;;;;;3.92;1.80;;;1.20;99.90;;;;;;4993491;28;20125;-71
2022/12/07 05:55:40;;;;;;;3.45;1.77;;;0.90;99.90;;;;;;4983085;28;20532;-71
2022/12/07 06:00:50;;;;;;;6.70;2.80;;;0.90;99.90;;;;;;4991101;28;20037;-71
2022/12/07 06:03:16;;;;;;;4.35;2.20;;;0.80;99.90;;;;;;4997410;28;20038;-71
2022/12/07 06:05:41;;;;;;;4.30;2.03;;;0.80;99.90;;;;;;4988599;28;20037;-71
2022/12/07 06:08:07;;;;;;;4.93;2.03;;;0.90;99.90;;;;;;4990401;28;20042;-71
2022/12/07 06:10:33;;;;;;;3.67;1.92;;;0.80;99.90;;;;;;4987481;28;20104;-71
2022/12/07 06:12:59;;;;;;;6.13;2.72;;;0.70;99.90;;;;;;4987921;28;20034;-71
2022/12/07 06:15:25;;;;;;;3.80;2.00;;;0.80;99.90;;;;;;5001210;28;20040;-71
2022/12/07 06:17:51;;;;;;;3.85;2.08;;;0.90;99.90;;;;;;4991832;28;20099;-71
2022/12/07 06:20:16;;;;;;;4.07;2.08;;;0.90;99.90;;;;;;4991379;28;20038;-71
2022/12/07 06:22:42;;;;;;;4.38;1.85;;;1.10;99.90;;;;;;4986896;28;20050;-71
2022/12/07 06:25:08;;;;;;;4.20;1.80;;;1.10;99.90;;;;;;4989580;28;20465;-71
2022/12/07 06:27:35;;;;;;;4.43;2.53;;;1.20;99.90;;;;;;4995491;28;20038;-71
2022/12/07 06:30:06;;;;;;;5.68;2.17;;;1.20;99.90;;;;;;4996413;28;20096;-71
2022/12/07 06:32:36;;;;;;;5.65;1.92;;;1.20;99.90;;;;;;4989337;28;20061;-71
2022/12/07 06:35:02;;;;;;;5.18;2.22;;;1.30;99.90;;;;;;4997141;28;20164;-71
2022/12/07 06:37:28;;;;;;;3.65;1.60;;;1.30;99.90;;;;;;4997569;28;20156;-71
2022/12/07 06:39:53;;;;;;;3.47;1.60;;;1.20;99.90;;;;;;4993574;28;20030;-71
2022/12/07 06:42:19;;;;;;;3.95;1.88;;;1.00;99.90;;;;;;4999679;28;20495;-71
2022/12/07 06:44:44;;;;;;;4.65;1.90;;;1.10;99.90;;;;;;4991826;28;20034;-71
2022/12/07 06:47:11;;;;;;;5.82;2.30;;;1.30;99.90;;;;;;4986507;28;20473;-71
2022/12/07 06:49:36;;;;;;;4.28;2.05;;;1.50;99.90;;;;;;4990276;28;20038;-71
2022/12/07 06:52:04;;;;;;;6.13;2.40;;;1.40;99.90;;;;;;4997946;28;20107;-71
2022/12/07 06:54:30;;;;;;;4.95;2.28;;;1.20;99.90;;;;;;4996773;28;20034;-71
2022/12/07 06:56:55;;;;;;;4.72;1.50;;;1.10;99.90;;;;;;4994375;28;20069;-71
2022/12/07 06:59:21;;;;;;;3.75;2.35;;;1.10;99.90;;;;;;4994768;28;20072;-71
2022/12/07 07:01:47;;;;;;;4.60;2.25;;;1.00;99.90;;;;;;4993672;28;20168;-71
2022/12/07 07:04:12;;;;;;;6.07;2.70;;;1.10;99.90;;;;;;4997563;28;20116;-70
2022/12/07 07:06:38;;;;;;;3.13;1.73;;;1.10;99.90;;;;;;4992027;28;20033;-71
2022/12/07 07:09:04;;;;;;;4.82;1.58;;;1.30;99.90;;;;;;5001617;28;20072;-71
2022/12/07 07:11:29;;;;;;;5.55;1.70;;;1.60;99.90;;;;;;4998593;28;20116;-71
2022/12/07 07:13:57;;;;;;;4.80;1.98;;;1.40;99.90;;;;;;4997373;28;20022;-71
2022/12/07 07:16:23;;;;;;;4.05;1.85;;;1.50;99.90;;;;;;4987051;28;20451;-71
2022/12/07 07:18:49;;;;;;;5.03;1.83;;;1.50;99.90;;;;;;4997444;28;20350;-71
2022/12/07 07:21:14;;;;;;;1.77;1.10;;;1.50;99.90;;;;;;4990198;28;20124;-71
2022/12/07 07:23:40;;;;;;;3.63;1.50;;;1.30;99.90;;;;;;5001585;28;20409;-71
2022/12/07 07:26:06;;;;;;;3.38;1.60;;;1.20;99.90;;;;;;4994828;28;20137;-71
2022/12/07 07:28:31;;;;;;;4.85;1.83;;;1.30;99.90;;;;;;4991140;28;20038;-71
2022/12/07 07:30:57;;;;;;;5.50;1.83;;;1.30;99.90;;;;;;4992358;28;20743;-71
2022/12/07 07:33:23;;;;;;;4.72;2.10;;;1.20;99.90;;;;;;4985568;28;20026;-71
2022/12/07 07:35:48;;;;;;;4.45;1.67;;;1.50;99.90;;;;;;4996301;28;20041;-71
2022/12/07 07:38:14;;;;;;;4.63;1.98;;;1.40;99.90;;;;;;4987056;28;20036;-71
2022/12/07 07:40:40;;;;;;;4.28;2.03;;;1.40;99.90;;;;;;4994939;28;20038;-71
2022/12/07 07:43:05;;;;;;;2.03;1.17;;;1.50;99.90;;;;;;4990703;28;20492;-70
2022/12/07 07:45:32;;;;;;;5.50;2.35;;;1.60;99.90;;;;;;4992018;28;20526;-71
2022/12/07 07:47:57;;;;;;;4.45;1.92;;;1.60;99.90;;;;;;4999219;28;20116;-70
2022/12/07 07:50:23;;;;;;;7.40;3.05;;;1.70;99.90;;;;;;4992975;28;20160;-70
2022/12/07 07:52:49;;;;;;;7.05;3.60;;;1.50;99.90;;;;;;4992281;28;20456;-70
2022/12/07 07:55:15;;;;;;;7.05;4.57;;;1.30;99.90;;;;;;4992430;28;20450;-70
2022/12/07 07:57:40;;;;;;;7.28;3.15;;;1.00;99.90;;;;;;4991593;28;20042;-70
2022/12/07 08:00:16;;;;;;;5.03;2.78;;;1.00;99.90;;;;;;4995299;28;20038;-70
2022/12/07 08:02:45;;;;;;;6.00;2.70;;;1.10;99.90;;;;;;4999530;28;20420;-70
2022/12/07 08:05:12;;;;;;;7.13;2.70;;;1.20;99.90;;;;;;4997144;28;20049;-70
2022/12/07 08:07:38;;;;;;;6.68;2.83;;;1.10;99.90;;;;;;4999445;28;20022;-70
2022/12/07 08:10:05;;;;;;;7.63;3.90;;;0.90;99.90;;;;;;4996452;28;24096;-70
2022/12/07 08:12:31;;;;;;;7.35;4.07;;;0.80;99.90;;;;;;4989643;28;20026;-70
2022/12/07 08:14:57;;;;;;;7.88;3.83;;;0.80;99.90;;;;;;4985640;28;20034;-70
2022/12/07 08:17:22;;;;;;;5.68;2.60;;;0.80;99.90;;;;;;4987579;28;20038;-70
2022/12/07 08:19:48;;;;;;;4.55;2.25;;;0.90;99.90;;;;;;4998424;28;20029;-70
2022/12/07 08:22:14;;;;;;;4.10;2.03;;;0.90;99.90;;;;;;4998915;28;20088;-70
2022/12/07 08:24:39;;;;;;;3.78;1.73;;;0.90;99.90;;;;;;4992213;28;20392;-70
2022/12/07 08:27:05;;;;;;;5.95;1.77;;;1.00;99.90;;;;;;4992286;28;20042;-70
2022/12/07 08:29:31;;;;;;;5.50;2.50;;;1.00;99.90;;;;;;4993442;28;20038;-70
2022/12/07 08:31:56;;;;;;;5.65;3.10;;;0.90;99.90;;;;;;4990880;28;20584;-69
2022/12/07 08:34:22;;;;;;;6.88;2.95;;;0.80;99.90;;;;;;4995594;28;20096;-69
2022/12/07 08:36:48;;;;;;;6.78;3.58;;;0.80;99.90;;;;;;5001551;28;20037;-69
2022/12/07 08:39:15;;;;;;;9.13;5.18;;;0.90;99.90;;;;;;4995773;28;20637;-71
2022/12/07 08:41:41;;;;;;;6.75;3.63;;;0.90;99.90;;;;;;4998201;28;20136;-71
2022/12/07 08:44:06;;;;;;;6.90;3.55;;;0.80;99.90;;;;;;4997390;28;20083;-71
2022/12/07 08:46:38;;;;;;;7.07;3.15;;;0.80;99.90;;;;;;5007593;28;20115;-71
2022/12/07 08:49:09;;;;;;;4.60;2.25;;;0.90;99.90;;;;;;4990692;28;20841;-71
2022/12/07 08:51:35;;;;;;;6.40;3.00;;;0.90;99.90;;;;;;4991261;28;20123;-71
2022/12/07 08:54:06;;;;;;;5.90;2.45;;;1.00;99.90;;;;;;4996118;28;20416;-71
2022/12/07 08:56:32;;;;;;;5.57;2.33;;;1.00;99.90;;;;;;4995135;28;20037;-70
2022/12/07 08:58:58;;;;;;;10.02;5.68;;;0.90;99.90;;;;;;4998622;28;20037;-71
2022/12/07 09:01:24;;;;;;;4.53;2.22;;;0.90;99.90;;;;;;4993224;28;20056;-71
2022/12/07 09:03:49;;;;;;;4.05;2.15;;;1.00;99.90;;;;;;4996223;28;20117;-71
2022/12/07 09:06:15;;;;;;;6.07;2.40;;;1.00;99.90;;;;;;4996247;28;20046;-71
2022/12/07 09:08:47;;;;;;;6.70;2.38;;;1.10;99.90;;;;;;4996191;28;20022;-70
2022/12/07 09:11:12;;;;;;;4.18;2.20;;;1.10;99.90;;;;;;4990006;28;20048;-71
2022/12/07 09:13:38;;;;;;;5.65;2.15;;;1.20;99.90;;;;;;4993500;28;20029;-71
2022/12/07 09:16:04;;;;;;;4.10;1.67;;;1.20;99.90;;;;;;4997052;28;20033;-71
2022/12/07 09:18:30;;;;;;;5.88;2.00;;;1.20;99.90;;;;;;4990877;28;20489;-70
2022/12/07 09:20:56;;;;;;;4.32;1.70;;;1.10;99.90;;;;;;4999048;28;20220;-70
2022/12/07 09:23:22;;;;;;;5.40;1.83;;;1.10;99.90;;;;;;4996740;28;20058;-71
2022/12/07 09:25:47;;;;;;;4.95;2.60;;;1.20;99.90;;;;;;4997322;28;20044;-70
2022/12/07 09:28:13;;;;;;;7.22;2.75;;;1.30;99.90;;;;;;4998142;28;20033;-71
2022/12/07 09:30:44;;;;;;;6.75;2.03;;;1.30;99.90;;;;;;4994254;28;20038;-71
2022/12/07 09:33:10;;;;;;;4.70;2.22;;;1.30;99.90;;;;;;4994180;28;20050;-71
2022/12/07 09:35:36;;;;;;;5.22;2.28;;;1.30;99.90;;;;;;4991626;28;20025;-71
2022/12/07 09:38:02;;;;;;;4.10;2.30;;;1.30;99.90;;;;;;4993383;28;20030;-70
2022/12/07 09:40:28;;;;;;;5.85;1.98;;;1.40;99.90;;;;;;5001815;28;20289;-71
2022/12/07 09:42:55;;;;;;;5.80;2.80;;;1.40;99.90;;;;;;5001327;28;20026;-70
2022/12/07 09:45:32;;;;;;;5.93;3.10;;;1.40;99.90;;;;;;5002888;28;20037;-70
2022/12/07 09:47:59;;;;;;;5.28;2.60;;;1.30;99.90;;;;;;5001840;28;20651;-70
2022/12/07 09:50:27;;;;;;;7.88;3.20;;;1.40;99.90;;;;;;4999444;28;20037;-71
2022/12/07 09:53:01;;;;;;;7.88;2.63;;;1.50;99.90;;;;;;4993341;28;20022;-71
2022/12/07 09:55:28;;;;;;;7.43;4.55;;;1.40;99.90;;;;;;4994557;28;20041;-70
2022/12/07 09:57:55;;;;;;;6.53;4.57;;;1.30;99.90;;;;;;4997543;28;20030;-71
2022/12/07 10:00:23;;;;;;;7.10;2.67;;;1.40;99.90;;;;;;4994070;28;20026;-71
2022/12/07 10:03:02;;;;;;;4.45;2.25;;;1.40;99.90;;;;;;4998888;28;20506;-70
2022/12/07 10:05:32;;;;;;;5.45;2.00;;;1.40;99.90;;;;;;5001139;28;20046;-71
2022/12/07 10:07:57;;;;;;;5.25;2.50;;;1.50;99.90;;;;;;5005583;28;20061;-71
2022/12/07 10:10:26;;;;;;;5.80;2.78;;;1.50;99.90;;;;;;5008219;28;20085;-71
2022/12/07 10:13:07;;;;;;;5.07;2.10;;;1.70;99.90;;;;;;5008425;28;20025;-71
2022/12/07 10:15:47;;;;;;;5.20;2.42;;;1.70;99.90;;;;;;4989102;28;20029;-71
2022/12/07 10:18:30;;;;;;;5.45;2.00;;;1.60;99.90;;;;;;4991643;28;20044;-71
2022/12/07 10:21:08;;;;;;;6.03;2.92;;;1.50;99.90;;;;;;5008128;28;20056;-71
2022/12/07 10:23:35;;;;;;;4.35;2.50;;;1.70;99.90;;;;;;5007181;28;20046;-71
2022/12/07 10:26:21;;;;;;;4.93;2.67;;;1.70;99.90;;;;;;5006956;28;20777;-71
2022/12/07 10:28:48;;;;;;;6.00;2.42;;;1.70;99.90;;;;;;5000300;28;20030;-71
2022/12/07 10:31:20;;;;;;;8.48;2.60;;;1.80;99.90;;;;;;4985806;28;20041;-71
2022/12/07 10:33:52;;;;;;;4.38;2.17;;;1.70;99.90;;;;;;4989858;28;20041;-71
2022/12/07 10:36:36;;;;;;;9.68;2.20;;;1.70;99.90;;;;;;4997230;28;20026;-71
2022/12/07 10:39:14;;;;;;;9.65;2.72;;;1.80;99.90;;;;;;4987921;28;20041;-71
2022/12/07 10:42:00;;;;;;;6.47;3.38;;;1.80;99.90;;;;;;5004345;28;20034;-71
2022/12/07 10:44:31;;;;;;;6.75;3.10;;;2.00;99.90;;;;;;5000275;28;20114;-71
2022/12/07 10:47:09;;;;;;;4.90;2.65;;;2.20;99.90;;;;;;5002249;28;20041;-71
2022/12/07 10:50:10;;;;;;;8.73;3.40;;;2.30;99.90;;;;;;4991059;28;20327;-71
2022/12/07 10:52:53;;;;;;;4.32;2.33;;;2.40;99.90;;;;;;4994693;28;20070;-71
2022/12/07 10:55:22;;;;;;;8.70;4.18;;;2.60;99.90;;;;;;4999234;28;20623;-72
2022/12/07 10:58:18;;;;;;;6.75;3.28;;;2.80;99.90;;;;;;4990300;28;20084;-71
2022/12/07 11:00:58;;;;;;;5.82;3.15;;;3.00;99.90;;;;;;4996801;28;20029;-71
2022/12/07 11:03:35;;;;;;;6.43;3.17;;;3.20;99.90;;;;;;4996363;28;20026;-71
2022/12/07 11:06:13;;;;;;;6.45;3.30;;;3.10;99.90;;;;;;4996247;28;20030;-71
2022/12/07 11:08:56;;;;;;;7.88;3.00;;;3.20;99.90;;;;;;5004895;28;20029;-71
2022/12/07 11:11:32;;;;;;;7.63;3.72;;;3.20;99.90;;;;;;4993682;28;20042;-71
2022/12/07 11:14:12;;;;;;;8.73;3.78;;;3.40;99.90;;;;;;5001912;28;20268;-71
2022/12/07 11:16:44;;;;;;;6.85;3.65;;;3.40;99.90;;;;;;4995758;28;20042;-71
2022/12/07 11:19:39;;;;;;;7.63;3.25;;;3.50;99.90;;;;;;4999083;28;20038;-71
2022/12/07 11:22:20;;;;;;;;;;;3.60;99.90;;;;;;4996659;28;20050;-71
2022/12/07 11:24:54;;;;;;;7.25;3.13;;;3.70;99.90;;;;;;4999099;28;19913;-71
2022/12/07 11:27:40;;;;;;;6.25;3.22;;;3.80;99.90;;;;;;4995004;28;20042;-71
2022/12/07 11:30:13;;;;;;;5.90;2.80;;;4.00;99.90;;;;;;4988798;28;20445;-71
2022/12/07 11:33:16;;;;;;;6.13;3.13;;;4.20;99.90;;;;;;4996860;28;20034;-71
2022/12/07 11:35:51;;;;;;;6.93;2.60;;;4.20;99.90;;;;;;4986693;28;20665;-71
2022/12/07 11:38:24;;;;;;;7.72;3.50;;;4.50;99.90;;;;;;4993668;28;20040;-71
2022/12/07 11:40:53;;;;;;;6.60;2.97;;;4.50;99.90;;;;;;4994079;28;20023;-71
2022/12/07 11:43:28;;;;;;;5.38;2.92;;;4.60;99.90;;;;;;4987846;28;20034;-71
2022/12/07 11:46:07;;;;;;;5.18;2.60;;;4.60;99.90;;;;;;4998144;28;20036;-71
2022/12/07 11:48:45;;;;;;;5.18;2.25;;;4.60;99.90;;;;;;4986272;28;20096;-71
2022/12/07 11:51:12;;;;;;;4.55;2.22;;;4.60;99.90;;;;;;4992248;28;20022;-72
2022/12/07 11:53:55;;;;;;;7.35;2.63;;;4.80;99.90;;;;;;5000028;28;20026;-71
2022/12/07 11:56:23;;;;;;;5.32;2.78;;;4.80;99.90;;;;;;4986425;28;20378;-72
2022/12/07 11:59:12;;;;;;;4.07;1.92;;;4.70;99.90;;;;;;4990990;28;20037;-71
2022/12/07 12:01:38;;;;;;;5.13;2.53;;;4.70;99.90;;;;;;4989924;28;20522;-71
2022/12/07 12:04:09;;;;;;;4.55;2.20;;;4.70;99.90;;;;;;4995530;28;20236;-71
2022/12/07 12:06:40;;;;;;;6.38;3.05;;;4.70;99.90;;;;;;5003023;28;20148;-71
2022/12/07 12:09:40;;;;;;;11.65;5.45;;;4.70;99.90;;;;;;4994990;28;20060;-71
2022/12/07 12:12:24;;;;;;;6.45;3.45;;;4.80;99.90;;;;;;4997571;28;20108;-71
2022/12/07 12:15:08;;;;;;;6.13;3.07;;;4.70;99.90;;;;;;4989881;28;20034;-72
2022/12/07 12:17:59;;;;;;;6.75;3.53;;;4.80;99.90;;;;;;4995476;28;20492;-72
2022/12/07 12:20:43;;;;;;;6.78;3.13;;;5.10;99.90;;;;;;4993198;28;20074;-71
2022/12/07 12:23:19;;;;;;;5.07;2.67;;;5.00;99.90;;;;;;4998337;28;20148;-71
2022/12/07 12:25:51;;;;;;;5.53;2.47;;;5.10;99.90;;;;;;4999223;28;20054;-71
2022/12/07 12:28:50;;;;;;;5.88;3.38;;;5.10;99.90;;;;;;4995174;28;20050;-70
2022/12/07 12:31:53;;;;;;;4.97;2.80;;;5.00;99.90;;;;;;4989066;28;20386;-70
2022/12/07 12:34:59;;;;;;;4.95;2.78;;;5.10;99.90;;;;;;4990608;28;20618;-70
2022/12/07 12:37:34;;;;;;;5.85;2.83;;;5.00;99.90;;;;;;4941323;28;20039;-70
2022/12/07 12:40:14;;;;;;;7.20;2.65;;;5.10;99.90;;;;;;4984148;28;20042;-70
2022/12/07 12:42:47;;;;;;;4.78;2.75;;;5.00;99.90;;;;;;4995866;28;20040;-70
2022/12/07 12:45:22;;;;;;;5.22;3.03;;;5.00;99.90;;;;;;4993505;28;20036;-70
2022/12/07 12:48:18;;;;;;;4.57;2.33;;;5.10;99.90;;;;;;4991660;28;20161;-70
2022/12/07 12:50:44;;;;;;;4.90;2.83;;;5.10;99.90;;;;;;4991500;28;20053;-70
2022/12/07 12:53:13;;;;;;;4.35;2.40;;;5.00;99.90;;;;;;4984374;28;20097;-70
2022/12/07 12:55:41;;;;;;;5.35;2.63;;;5.00;99.90;;;;;;4983226;28;20489;-70
2022/12/07 12:58:38;;;;;;;5.20;2.40;;;4.90;99.90;;;;;;4987058;28;20030;-70
2022/12/07 13:01:26;;;;;;;9.05;4.28;;;5.00;99.90;;;;;;4990069;28;20113;-70
2022/12/07 13:03:56;;;;;;;52.35;23.67;;;4.90;99.90;;;;;;4987128;28;20142;-70
2022/12/07 13:06:24;;;;;;;52.65;24.98;;;4.90;99.90;;;;;;4990239;28;20095;-71
2022/12/07 13:08:52;;;;;;;10.25;5.63;;;5.00;99.90;;;;;;4988648;28;20033;-70
2022/12/07 13:11:29;;;;;;;8.50;3.58;;;5.00;99.90;;;;;;4984649;28;20973;-70
2022/12/07 13:14:33;;;;;;;6.68;2.97;;;5.00;99.90;;;;;;4989446;28;20062;-70
2022/12/07 13:16:58;;;;;;;7.50;3.13;;;5.00;99.90;;;;;;4989955;28;20034;-71
2022/12/07 13:19:42;;;;;;;5.70;3.05;;;5.20;99.90;;;;;;4983512;28;20413;-71
2022/12/07 13:22:30;;;;;;;5.10;2.65;;;5.20;99.90;;;;;;4994067;28;20113;-71